createdAt,value
2018-12-17T00:00:07.810Z,1002.84
2018-12-17T00:01:06.367Z,1002.81
2018-12-17T00:02:05.224Z,1002.78
2018-12-17T00:03:03.753Z,1002.76
2018-12-17T00:04:02.406Z,1002.79
2018-12-17T00:05:01.242Z,1002.72
2018-12-17T00:05:59.764Z,1002.74
2018-12-17T00:06:58.311Z,1002.77
2018-12-17T00:07:56.895Z,1002.78
2018-12-17T00:08:55.458Z,1002.79
2018-12-17T00:09:53.979Z,1002.83
2018-12-17T00:10:52.556Z,1002.79
2018-12-17T00:11:51.419Z,1002.78
2018-12-17T00:12:49.965Z,1002.82
2018-12-17T00:13:48.523Z,1002.83
2018-12-17T00:14:47.411Z,1002.8
2018-12-17T00:15:45.957Z,1002.89
2018-12-17T00:16:44.524Z,1002.85
2018-12-17T00:17:43.082Z,1002.89
2018-12-17T00:18:41.643Z,1002.86
2018-12-17T00:19:40.182Z,1002.89
2018-12-17T00:20:39.083Z,1002.88
2018-12-17T00:21:37.835Z,1002.91
2018-12-17T00:22:36.465Z,1002.89
2018-12-17T00:23:35.062Z,1002.95
2018-12-17T00:24:33.634Z,1002.91
2018-12-17T00:25:32.156Z,1002.94
2018-12-17T00:26:30.778Z,1002.93
2018-12-17T00:27:29.543Z,1002.95
2018-12-17T00:28:28.314Z,1002.94
2018-12-17T00:29:27.138Z,1003.02
2018-12-17T00:30:25.692Z,1003.02
2018-12-17T00:31:24.219Z,1003
2018-12-17T00:32:22.796Z,1003.02
2018-12-17T00:33:21.533Z,1003
2018-12-17T00:34:20.087Z,1003.01
2018-12-17T00:35:18.845Z,1003.07
2018-12-17T00:36:17.608Z,1003.06
2018-12-17T00:37:16.165Z,1003.1
2018-12-17T00:38:14.767Z,1003.13
2018-12-17T00:39:13.368Z,1003.08
2018-12-17T00:40:11.859Z,1003.09
2018-12-17T00:41:10.411Z,1003.1
2018-12-17T00:42:08.938Z,1003.04
2018-12-17T00:43:07.637Z,1003.06
2018-12-17T00:44:06.171Z,1003.09
2018-12-17T00:45:04.852Z,1003.09
2018-12-17T00:46:03.582Z,1003.04
2018-12-17T00:47:02.126Z,1003.04
2018-12-17T00:48:00.926Z,1003.02
2018-12-17T00:48:59.494Z,1002.99
2018-12-17T00:49:58.047Z,1003.03
2018-12-17T00:50:56.571Z,1003.05
2018-12-17T00:51:55.129Z,1003.11
2018-12-17T00:52:53.677Z,1003.07
2018-12-17T00:53:52.237Z,1003.09
2018-12-17T00:54:51.096Z,1003.11
2018-12-17T00:55:49.910Z,1003.04
2018-12-17T00:56:48.629Z,1003.07
2018-12-17T00:57:47.216Z,1003.1
2018-12-17T00:58:45.871Z,1003.08
2018-12-17T00:59:44.469Z,1003.09
2018-12-17T01:00:43.264Z,1003.05
2018-12-17T01:01:41.917Z,1003.07
2018-12-17T01:02:40.624Z,1003.1
2018-12-17T01:03:39.202Z,1003.19
2018-12-17T01:04:37.746Z,1003.13
2018-12-17T01:05:36.319Z,1003.17
2018-12-17T01:06:34.862Z,1003.13
2018-12-17T01:07:33.680Z,1003.13
2018-12-17T01:08:32.277Z,1003.13
2018-12-17T01:09:31.262Z,1003.16
2018-12-17T01:10:29.800Z,1003.18
2018-12-17T01:11:28.324Z,1003.18
2018-12-17T01:12:26.877Z,1003.15
2018-12-17T01:13:25.420Z,1003.16
2018-12-17T01:14:23.965Z,1003.18
2018-12-17T01:15:22.508Z,1003.19
2018-12-17T01:16:21.111Z,1003.21
2018-12-17T01:17:19.700Z,1003.23
2018-12-17T01:18:18.242Z,1003.26
2018-12-17T01:19:16.937Z,1003.25
2018-12-17T01:20:15.661Z,1003.31
2018-12-17T01:21:14.204Z,1003.29
2018-12-17T01:22:12.956Z,1003.32
2018-12-17T01:23:11.527Z,1003.38
2018-12-17T01:24:10.087Z,1003.33
2018-12-17T01:25:08.617Z,1003.37
2018-12-17T01:26:07.785Z,1003.41
2018-12-17T01:27:06.449Z,1003.38
2018-12-17T01:28:05.041Z,1003.44
2018-12-17T01:29:03.590Z,1003.45
2018-12-17T01:30:02.139Z,1003.44
2018-12-17T01:31:00.663Z,1003.49
2018-12-17T01:31:59.252Z,1003.47
2018-12-17T01:32:57.797Z,1003.48
2018-12-17T01:33:56.352Z,1003.5
2018-12-17T01:34:55.262Z,1003.51
2018-12-17T01:35:53.836Z,1003.48
2018-12-17T01:36:52.335Z,1003.53
2018-12-17T01:37:51.202Z,1003.51
2018-12-17T01:38:49.756Z,1003.51
2018-12-17T01:39:48.285Z,1003.57
2018-12-17T01:40:46.855Z,1003.52
2018-12-17T01:41:45.401Z,1003.54
2018-12-17T01:42:43.936Z,1003.58
2018-12-17T01:43:42.579Z,1003.57
2018-12-17T01:44:41.380Z,1003.65
2018-12-17T01:45:39.939Z,1003.58
2018-12-17T01:46:38.484Z,1003.58
2018-12-17T01:47:37.388Z,1003.57
2018-12-17T01:48:35.922Z,1003.55
2018-12-17T01:49:34.451Z,1003.56
2018-12-17T01:50:33.002Z,1003.57
2018-12-17T01:51:31.634Z,1003.58
2018-12-17T01:52:30.166Z,1003.57
2018-12-17T01:53:28.966Z,1003.54
2018-12-17T01:54:27.727Z,1003.58
2018-12-17T01:55:26.351Z,1003.54
2018-12-17T01:56:25.044Z,1003.54
2018-12-17T01:57:23.627Z,1003.6
2018-12-17T01:58:28.968Z,1003.54
2018-12-17T01:59:20.771Z,1003.57
2018-12-17T02:00:19.517Z,1003.53
2018-12-17T02:01:18.306Z,1003.56
2018-12-17T02:02:17.087Z,1003.59
2018-12-17T02:03:15.618Z,1003.58
2018-12-17T02:04:14.177Z,1003.59
2018-12-17T02:05:12.713Z,1003.57
2018-12-17T02:06:11.254Z,1003.59
2018-12-17T02:07:09.789Z,1003.61
2018-12-17T02:08:08.335Z,1003.58
2018-12-17T02:09:06.846Z,1003.6
2018-12-17T02:10:05.487Z,1003.62
2018-12-17T02:11:04.069Z,1003.6
2018-12-17T02:12:02.813Z,1003.65
2018-12-17T02:13:01.633Z,1003.64
2018-12-17T02:14:00.178Z,1003.69
2018-12-17T02:14:58.831Z,1003.69
2018-12-17T02:15:57.394Z,1003.69
2018-12-17T02:16:55.939Z,1003.72
2018-12-17T02:17:54.483Z,1003.69
2018-12-17T02:18:53.416Z,1003.75
2018-12-17T02:19:51.936Z,1003.68
2018-12-17T02:20:50.548Z,1003.73
2018-12-17T02:21:49.392Z,1003.69
2018-12-17T02:22:47.949Z,1003.73
2018-12-17T02:23:46.438Z,1003.74
2018-12-17T02:24:45.031Z,1003.71
2018-12-17T02:25:43.596Z,1003.77
2018-12-17T02:26:42.153Z,1003.79
2018-12-17T02:27:40.997Z,1003.81
2018-12-17T02:28:39.716Z,1003.84
2018-12-17T02:29:39.026Z,1003.9
2018-12-17T02:30:37.736Z,1003.88
2018-12-17T02:31:36.277Z,1003.92
2018-12-17T02:32:35.062Z,1003.85
2018-12-17T02:33:33.629Z,1003.84
2018-12-17T02:34:32.159Z,1003.86
2018-12-17T02:35:30.711Z,1003.84
2018-12-17T02:36:29.266Z,1003.88
2018-12-17T02:37:27.805Z,1003.86
2018-12-17T02:38:26.378Z,1003.87
2018-12-17T02:39:25.232Z,1003.87
2018-12-17T02:40:23.824Z,1003.89
2018-12-17T02:41:22.392Z,1003.86
2018-12-17T02:42:21.219Z,1003.88
2018-12-17T02:43:19.791Z,1003.91
2018-12-17T02:44:18.317Z,1003.93
2018-12-17T02:45:16.872Z,1003.9
2018-12-17T02:46:15.489Z,1003.96
2018-12-17T02:47:14.081Z,1003.97
2018-12-17T02:48:12.618Z,1004
2018-12-17T02:49:11.350Z,1004
2018-12-17T02:50:09.898Z,1004
2018-12-17T02:51:08.434Z,1003.99
2018-12-17T02:52:07.384Z,1003.99
2018-12-17T02:53:05.943Z,1004.01
2018-12-17T02:54:04.475Z,1003.97
2018-12-17T02:55:03.182Z,1004
2018-12-17T02:56:01.548Z,1004.01
2018-12-17T02:57:00.083Z,1004
2018-12-17T02:57:58.971Z,1004.02
2018-12-17T02:58:57.635Z,1004
2018-12-17T02:59:56.179Z,1004
2018-12-17T03:00:55.000Z,1004.02
2018-12-17T03:01:53.562Z,1004.03
2018-12-17T03:02:52.117Z,1004.05
2018-12-17T03:03:50.667Z,1004.11
2018-12-17T03:04:49.562Z,1004.09
2018-12-17T03:05:48.126Z,1004.08
2018-12-17T03:06:46.687Z,1004.09
2018-12-17T03:07:45.537Z,1004.12
2018-12-17T03:08:44.071Z,1004.15
2018-12-17T03:09:42.755Z,1004.19
2018-12-17T03:10:41.332Z,1004.15
2018-12-17T03:13:21.529Z,1004.13
2018-12-17T03:14:20.073Z,1004.13
2018-12-17T03:15:18.709Z,1004.19
2018-12-17T03:16:17.611Z,1004.21
2018-12-17T03:17:16.156Z,1004.25
2018-12-17T03:18:14.721Z,1004.27
2018-12-17T03:19:13.248Z,1004.28
2018-12-17T03:20:11.773Z,1004.26
2018-12-17T03:21:10.327Z,1004.32
2018-12-17T03:22:08.874Z,1004.31
2018-12-17T03:23:07.406Z,1004.31
2018-12-17T03:24:05.992Z,1004.4
2018-12-17T03:25:04.640Z,1004.32
2018-12-17T03:26:03.387Z,1004.34
2018-12-17T03:27:01.934Z,1004.32
2018-12-17T03:28:00.510Z,1004.39
2018-12-17T03:28:59.333Z,1004.4
2018-12-17T03:29:57.882Z,1004.42
2018-12-17T03:30:56.433Z,1004.45
2018-12-17T03:31:55.141Z,1004.49
2018-12-17T03:32:53.681Z,1004.47
2018-12-17T03:33:52.269Z,1004.5
2018-12-17T03:34:50.994Z,1004.53
2018-12-17T03:35:49.679Z,1004.5
2018-12-17T03:36:48.239Z,1004.55
2018-12-17T03:37:46.977Z,1004.54
2018-12-17T03:38:45.551Z,1004.56
2018-12-17T03:39:44.211Z,1004.56
2018-12-17T03:40:43.077Z,1004.54
2018-12-17T03:41:41.827Z,1004.59
2018-12-17T03:42:40.508Z,1004.59
2018-12-17T03:43:39.094Z,1004.64
2018-12-17T03:44:37.648Z,1004.64
2018-12-17T03:45:36.180Z,1004.65
2018-12-17T03:46:34.744Z,1004.66
2018-12-17T03:47:33.298Z,1004.65
2018-12-17T03:48:31.833Z,1004.67
2018-12-17T03:49:30.403Z,1004.65
2018-12-17T03:50:29.341Z,1004.66
2018-12-17T03:51:27.906Z,1004.66
2018-12-17T03:52:26.440Z,1004.65
2018-12-17T03:53:25.197Z,1004.73
2018-12-17T03:54:23.746Z,1004.78
2018-12-17T03:55:22.302Z,1004.78
2018-12-17T03:56:20.864Z,1004.79
2018-12-17T03:57:19.575Z,1004.81
2018-12-17T03:58:18.132Z,1004.83
2018-12-17T03:59:16.843Z,1004.86
2018-12-17T04:00:15.738Z,1004.84
2018-12-17T04:01:14.300Z,1004.87
2018-12-17T04:02:12.894Z,1004.89
2018-12-17T04:03:11.455Z,1004.88
2018-12-17T04:04:09.971Z,1004.83
2018-12-17T04:05:08.498Z,1004.89
2018-12-17T04:06:07.050Z,1004.85
2018-12-17T04:07:05.698Z,1004.87
2018-12-17T04:08:04.269Z,1004.92
2018-12-17T04:09:03.086Z,1004.91
2018-12-17T04:10:01.825Z,1004.92
2018-12-17T04:11:00.420Z,1004.94
2018-12-17T04:11:59.067Z,1004.92
2018-12-17T04:12:57.643Z,1004.92
2018-12-17T04:13:56.202Z,1004.98
2018-12-17T04:14:54.737Z,1005
2018-12-17T04:15:53.273Z,1005.02
2018-12-17T04:16:51.829Z,1005.01
2018-12-17T04:17:50.387Z,1005.02
2018-12-17T04:18:49.352Z,1004.97
2018-12-17T04:19:48.000Z,1004.95
2018-12-17T04:20:46.692Z,1004.99
2018-12-17T04:21:45.282Z,1004.96
2018-12-17T04:22:43.861Z,1004.96
2018-12-17T04:23:42.417Z,1005.03
2018-12-17T04:24:41.374Z,1005.01
2018-12-17T04:25:39.916Z,1005.04
2018-12-17T04:26:38.441Z,1005.02
2018-12-17T04:27:37.332Z,1005
2018-12-17T04:28:35.879Z,1005.06
2018-12-17T04:29:34.425Z,1005.05
2018-12-17T04:30:32.980Z,1005.06
2018-12-17T04:31:31.505Z,1005.01
2018-12-17T04:32:30.008Z,1005.02
2018-12-17T04:33:28.572Z,1005.02
2018-12-17T04:34:27.472Z,1004.97
2018-12-17T04:35:26.032Z,1004.96
2018-12-17T04:36:25.441Z,1004.99
2018-12-17T04:37:23.986Z,1005.06
2018-12-17T04:38:22.507Z,1005.1
2018-12-17T04:39:21.468Z,1005.03
2018-12-17T04:40:20.008Z,1005.06
2018-12-17T04:41:18.538Z,1005.07
2018-12-17T04:42:17.107Z,1005.14
2018-12-17T04:43:15.692Z,1005.08
2018-12-17T04:44:14.232Z,1005.16
2018-12-17T04:45:13.145Z,1005.17
2018-12-17T04:46:11.833Z,1005.19
2018-12-17T04:47:10.530Z,1005.21
2018-12-17T04:48:09.156Z,1005.23
2018-12-17T04:49:07.727Z,1005.22
2018-12-17T04:50:06.275Z,1005.24
2018-12-17T04:51:05.169Z,1005.27
2018-12-17T04:52:03.843Z,1005.3
2018-12-17T04:53:02.388Z,1005.26
2018-12-17T04:54:01.174Z,1005.27
2018-12-17T04:54:59.733Z,1005.26
2018-12-17T04:55:58.286Z,1005.28
2018-12-17T04:56:56.827Z,1005.3
2018-12-17T04:57:55.372Z,1005.27
2018-12-17T04:58:53.935Z,1005.27
2018-12-17T04:59:52.475Z,1005.26
2018-12-17T05:00:51.359Z,1005.27
2018-12-17T05:01:49.887Z,1005.32
2018-12-17T05:02:48.451Z,1005.29
2018-12-17T05:03:47.355Z,1005.34
2018-12-17T05:04:45.913Z,1005.36
2018-12-17T05:05:44.459Z,1005.39
2018-12-17T05:06:43.017Z,1005.37
2018-12-17T05:07:41.571Z,1005.39
2018-12-17T05:08:40.087Z,1005.36
2018-12-17T05:09:38.653Z,1005.4
2018-12-17T05:10:37.473Z,1005.43
2018-12-17T05:11:36.032Z,1005.41
2018-12-17T05:12:34.561Z,1005.43
2018-12-17T05:13:33.450Z,1005.46
2018-12-17T05:14:31.966Z,1005.4
2018-12-17T05:15:30.523Z,1005.49
2018-12-17T05:16:29.124Z,1005.5
2018-12-17T05:17:27.674Z,1005.51
2018-12-17T05:18:26.273Z,1005.45
2018-12-17T05:19:25.171Z,1005.5
2018-12-17T05:20:23.843Z,1005.45
2018-12-17T05:21:22.595Z,1005.47
2018-12-17T05:22:21.197Z,1005.48
2018-12-17T05:23:19.755Z,1005.53
2018-12-17T05:24:18.295Z,1005.56
2018-12-17T05:25:16.880Z,1005.56
2018-12-17T05:26:15.601Z,1005.58
2018-12-17T05:27:14.123Z,1005.57
2018-12-17T05:28:12.797Z,1005.55
2018-12-17T05:29:11.589Z,1005.58
2018-12-17T05:30:10.248Z,1005.64
2018-12-17T05:31:08.856Z,1005.65
2018-12-17T05:32:07.385Z,1005.7
2018-12-17T05:33:05.925Z,1005.67
2018-12-17T05:34:04.465Z,1005.72
2018-12-17T05:35:03.006Z,1005.74
2018-12-17T05:36:01.786Z,1005.74
2018-12-17T05:37:00.335Z,1005.73
2018-12-17T05:37:58.976Z,1005.74
2018-12-17T05:38:57.679Z,1005.78
2018-12-17T05:39:56.217Z,1005.77
2018-12-17T05:40:54.974Z,1005.7
2018-12-17T05:41:53.608Z,1005.76
2018-12-17T05:42:52.222Z,1005.75
2018-12-17T05:43:50.779Z,1005.74
2018-12-17T05:44:49.539Z,1005.77
2018-12-17T05:45:48.054Z,1005.78
2018-12-17T05:46:46.632Z,1005.77
2018-12-17T05:47:45.408Z,1005.76
2018-12-17T05:48:43.966Z,1005.79
2018-12-17T05:49:42.529Z,1005.8
2018-12-17T05:50:41.214Z,1005.85
2018-12-17T05:51:39.787Z,1005.92
2018-12-17T05:52:38.383Z,1005.92
2018-12-17T05:53:37.206Z,1005.92
2018-12-17T05:54:35.759Z,1005.96
2018-12-17T05:55:34.325Z,1005.98
2018-12-17T05:56:33.108Z,1006
2018-12-17T05:57:31.633Z,1005.99
2018-12-17T05:58:30.324Z,1006.06
2018-12-17T05:59:28.919Z,1006.06
2018-12-17T06:00:27.654Z,1006.1
2018-12-17T06:01:26.232Z,1006.08
2018-12-17T06:02:24.869Z,1006.07
2018-12-17T06:03:23.656Z,1006.09
2018-12-17T06:04:22.188Z,1006.1
2018-12-17T06:05:20.817Z,1006.18
2018-12-17T06:06:19.408Z,1006.17
2018-12-17T06:07:17.953Z,1006.17
2018-12-17T06:08:16.476Z,1006.22
2018-12-17T06:09:15.030Z,1006.21
2018-12-17T06:10:13.581Z,1006.29
2018-12-17T06:11:12.150Z,1006.33
2018-12-17T06:12:10.663Z,1006.33
2018-12-17T06:13:09.579Z,1006.31
2018-12-17T06:14:08.079Z,1006.31
2018-12-17T06:15:06.933Z,1006.39
2018-12-17T06:16:05.516Z,1006.4
2018-12-17T06:17:04.050Z,1006.39
2018-12-17T06:18:02.575Z,1006.4
2018-12-17T06:19:01.127Z,1006.42
2018-12-17T06:19:59.658Z,1006.4
2018-12-17T06:20:58.180Z,1006.38
2018-12-17T06:21:57.153Z,1006.37
2018-12-17T06:22:55.882Z,1006.39
2018-12-17T06:23:54.609Z,1006.41
2018-12-17T06:24:53.266Z,1006.36
2018-12-17T06:25:51.808Z,1006.32
2018-12-17T06:26:50.331Z,1006.37
2018-12-17T06:27:49.298Z,1006.48
2018-12-17T06:28:47.913Z,1006.51
2018-12-17T06:29:46.531Z,1006.52
2018-12-17T06:30:45.256Z,1006.56
2018-12-17T06:31:43.879Z,1006.53
2018-12-17T06:32:42.440Z,1006.57
2018-12-17T06:33:41.316Z,1006.6
2018-12-17T06:34:39.840Z,1006.6
2018-12-17T06:35:38.410Z,1006.64
2018-12-17T06:36:37.343Z,1006.65
2018-12-17T06:37:35.933Z,1006.64
2018-12-17T06:38:34.483Z,1006.69
2018-12-17T06:39:33.012Z,1006.62
2018-12-17T06:40:31.850Z,1006.68
2018-12-17T06:41:30.416Z,1006.66
2018-12-17T06:42:29.417Z,1006.76
2018-12-17T06:43:27.982Z,1006.73
2018-12-17T06:44:26.539Z,1006.72
2018-12-17T06:45:25.133Z,1006.76
2018-12-17T06:46:23.750Z,1006.75
2018-12-17T06:47:22.265Z,1006.79
2018-12-17T06:50:02.606Z,1006.77
2018-12-17T06:51:01.541Z,1006.78
2018-12-17T06:52:00.084Z,1006.79
2018-12-17T06:52:58.611Z,1006.74
2018-12-17T06:53:57.285Z,1006.8
2018-12-17T06:54:55.835Z,1006.79
2018-12-17T06:55:54.360Z,1006.82
2018-12-17T06:56:53.161Z,1006.83
2018-12-17T06:57:51.901Z,1006.89
2018-12-17T06:58:50.461Z,1006.87
2018-12-17T06:59:49.179Z,1006.99
2018-12-17T07:00:47.729Z,1006.92
2018-12-17T07:01:46.299Z,1006.95
2018-12-17T07:02:45.214Z,1006.99
2018-12-17T07:03:43.878Z,1007.07
2018-12-17T07:04:42.616Z,1007.1
2018-12-17T07:05:41.303Z,1007.05
2018-12-17T07:06:39.860Z,1007.11
2018-12-17T07:07:38.369Z,1007.15
2018-12-17T07:08:36.964Z,1007.23
2018-12-17T07:09:35.672Z,1007.18
2018-12-17T07:10:34.240Z,1007.15
2018-12-17T07:11:32.841Z,1007.18
2018-12-17T07:12:31.609Z,1007.17
2018-12-17T07:13:30.142Z,1007.13
2018-12-17T07:14:28.766Z,1007.13
2018-12-17T07:15:27.339Z,1007.2
2018-12-17T07:16:25.875Z,1007.2
2018-12-17T07:17:24.391Z,1007.2
2018-12-17T07:18:22.950Z,1007.25
2018-12-17T07:19:21.549Z,1007.29
2018-12-17T07:20:20.086Z,1007.24
2018-12-17T07:21:18.664Z,1007.31
2018-12-17T07:23:59.014Z,1007.35
2018-12-17T07:24:57.702Z,1007.35
2018-12-17T07:25:56.292Z,1007.37
2018-12-17T07:26:54.922Z,1007.33
2018-12-17T07:27:53.583Z,1007.35
2018-12-17T07:28:52.134Z,1007.39
2018-12-17T07:29:50.682Z,1007.45
2018-12-17T07:30:49.540Z,1007.41
2018-12-17T07:31:48.089Z,1007.44
2018-12-17T07:32:46.973Z,1007.46
2018-12-17T07:33:45.731Z,1007.46
2018-12-17T07:34:44.261Z,1007.47
2018-12-17T07:35:43.102Z,1007.51
2018-12-17T07:36:41.746Z,1007.48
2018-12-17T07:37:40.292Z,1007.52
2018-12-17T07:38:39.171Z,1007.49
2018-12-17T07:39:37.739Z,1007.49
2018-12-17T07:40:36.408Z,1007.55
2018-12-17T07:41:35.264Z,1007.59
2018-12-17T07:42:33.878Z,1007.63
2018-12-17T07:43:32.622Z,1007.65
2018-12-17T07:44:31.223Z,1007.63
2018-12-17T07:45:29.767Z,1007.64
2018-12-17T07:46:28.295Z,1007.63
2018-12-17T07:47:26.866Z,1007.72
2018-12-17T07:48:25.510Z,1007.73
2018-12-17T07:49:24.004Z,1007.7
2018-12-17T07:50:22.530Z,1007.7
2018-12-17T07:51:21.359Z,1007.76
2018-12-17T07:52:19.912Z,1007.76
2018-12-17T07:53:18.430Z,1007.75
2018-12-17T07:54:17.236Z,1007.75
2018-12-17T07:55:15.862Z,1007.69
2018-12-17T07:56:14.401Z,1007.74
2018-12-17T07:57:13.758Z,1007.75
2018-12-17T07:58:12.315Z,1007.79
2018-12-17T07:59:10.943Z,1007.77
2018-12-17T08:00:09.506Z,1007.83
2018-12-17T08:01:08.044Z,1007.83
2018-12-17T08:02:06.634Z,1007.88
2018-12-17T08:03:05.624Z,1007.89
2018-12-17T08:04:04.128Z,1007.86
2018-12-17T08:05:02.984Z,1007.87
2018-12-17T08:06:01.545Z,1007.9
2018-12-17T08:07:00.081Z,1007.86
2018-12-17T08:07:58.615Z,1007.88
2018-12-17T08:08:57.155Z,1007.89
2018-12-17T08:09:55.699Z,1007.96
2018-12-17T08:10:54.283Z,1007.95
2018-12-17T08:11:53.147Z,1007.91
2018-12-17T08:12:51.868Z,1007.98
2018-12-17T08:13:50.616Z,1008.03
2018-12-17T08:14:49.175Z,1008.05
2018-12-17T08:15:47.718Z,1008.08
2018-12-17T08:16:46.289Z,1008.08
2018-12-17T08:17:44.844Z,1008.11
2018-12-17T08:18:43.535Z,1008.13
2018-12-17T08:19:42.125Z,1008.16
2018-12-17T08:20:40.745Z,1008.15
2018-12-17T08:21:39.593Z,1008.23
2018-12-17T08:22:38.097Z,1008.29
2018-12-17T08:23:36.762Z,1008.29
2018-12-17T08:24:35.347Z,1008.27
2018-12-17T08:25:33.881Z,1008.28
2018-12-17T08:26:32.447Z,1008.32
2018-12-17T08:27:30.954Z,1008.33
2018-12-17T08:28:29.496Z,1008.38
2018-12-17T08:29:28.063Z,1008.33
2018-12-17T08:30:26.606Z,1008.34
2018-12-17T08:31:25.429Z,1008.39
2018-12-17T08:32:24.015Z,1008.34
2018-12-17T08:33:22.567Z,1008.36
2018-12-17T08:34:21.392Z,1008.33
2018-12-17T08:35:19.984Z,1008.39
2018-12-17T08:36:18.543Z,1008.39
2018-12-17T08:37:17.116Z,1008.41
2018-12-17T08:38:15.649Z,1008.4
2018-12-17T08:39:14.227Z,1008.41
2018-12-17T08:40:13.075Z,1008.41
2018-12-17T08:41:11.747Z,1008.44
2018-12-17T08:42:10.290Z,1008.43
2018-12-17T08:43:09.609Z,1008.47
2018-12-17T08:44:08.144Z,1008.51
2018-12-17T08:45:06.820Z,1008.51
2018-12-17T08:46:05.457Z,1008.51
2018-12-17T08:47:04.001Z,1008.48
2018-12-17T08:48:02.649Z,1008.61
2018-12-17T08:49:01.260Z,1008.57
2018-12-17T08:49:59.808Z,1008.61
2018-12-17T08:50:58.350Z,1008.66
2018-12-17T08:51:56.920Z,1008.66
2018-12-17T08:52:55.752Z,1008.6
2018-12-17T08:53:54.282Z,1008.6
2018-12-17T08:54:52.853Z,1008.59
2018-12-17T08:55:51.664Z,1008.57
2018-12-17T08:56:50.191Z,1008.59
2018-12-17T08:57:48.817Z,1008.62
2018-12-17T08:58:47.406Z,1008.67
2018-12-17T08:59:46.006Z,1008.66
2018-12-17T09:00:44.536Z,1008.72
2018-12-17T09:01:43.448Z,1008.71
2018-12-17T09:02:41.952Z,1008.69
2018-12-17T09:03:40.587Z,1008.69
2018-12-17T09:04:39.406Z,1008.76
2018-12-17T09:05:37.967Z,1008.8
2018-12-17T09:06:36.515Z,1008.81
2018-12-17T09:07:35.133Z,1008.83
2018-12-17T09:08:33.665Z,1008.86
2018-12-17T09:09:32.217Z,1008.9
2018-12-17T09:10:30.744Z,1008.88
2018-12-17T09:11:29.542Z,1008.93
2018-12-17T09:12:28.117Z,1008.92
2018-12-17T09:13:26.697Z,1008.91
2018-12-17T09:14:25.580Z,1008.96
2018-12-17T09:15:24.201Z,1008.95
2018-12-17T09:16:22.857Z,1008.98
2018-12-17T09:17:21.637Z,1009.01
2018-12-17T09:18:20.228Z,1008.99
2018-12-17T09:19:19.195Z,1009.03
2018-12-17T09:20:17.749Z,1009.08
2018-12-17T09:21:16.312Z,1009.06
2018-12-17T09:22:14.836Z,1009.02
2018-12-17T09:23:13.369Z,1009.05
2018-12-17T09:24:11.903Z,1009.06
2018-12-17T09:25:10.491Z,1009.06
2018-12-17T09:26:09.355Z,1009.02
2018-12-17T09:27:07.874Z,1009.01
2018-12-17T09:28:06.449Z,1009.05
2018-12-17T09:29:05.307Z,1009.1
2018-12-17T09:30:03.869Z,1009.14
2018-12-17T09:31:02.371Z,1009.11
2018-12-17T09:32:00.995Z,1009.12
2018-12-17T09:32:59.672Z,1009.16
2018-12-17T09:33:58.175Z,1009.16
2018-12-17T09:34:56.977Z,1009.12
2018-12-17T09:35:55.733Z,1009.14
2018-12-17T09:36:54.280Z,1009.2
2018-12-17T09:37:52.907Z,1009.27
2018-12-17T09:38:51.534Z,1009.28
2018-12-17T09:39:50.079Z,1009.29
2018-12-17T09:40:48.615Z,1009.33
2018-12-17T09:41:47.161Z,1009.33
2018-12-17T09:42:45.702Z,1009.34
2018-12-17T09:43:44.255Z,1009.36
2018-12-17T09:44:43.104Z,1009.38
2018-12-17T09:45:41.680Z,1009.41
2018-12-17T09:46:40.236Z,1009.36
2018-12-17T09:47:39.131Z,1009.35
2018-12-17T09:48:37.685Z,1009.39
2018-12-17T09:49:36.243Z,1009.43
2018-12-17T09:50:34.774Z,1009.36
2018-12-17T09:51:33.306Z,1009.34
2018-12-17T09:52:31.860Z,1009.3
2018-12-17T09:53:30.384Z,1009.34
2018-12-17T09:54:29.194Z,1009.28
2018-12-17T09:55:27.957Z,1009.36
2018-12-17T09:56:26.528Z,1009.36
2018-12-17T09:57:25.295Z,1009.4
2018-12-17T09:58:23.832Z,1009.38
2018-12-17T09:59:22.569Z,1009.43
2018-12-17T10:00:25.297Z,1009.38
2018-12-17T10:01:19.910Z,1009.41
2018-12-17T10:02:18.513Z,1009.4
2018-12-17T10:03:17.318Z,1009.42
2018-12-17T10:04:15.844Z,1009.37
2018-12-17T10:05:14.391Z,1009.38
2018-12-17T10:06:12.986Z,1009.44
2018-12-17T10:07:11.526Z,1009.34
2018-12-17T10:08:10.111Z,1009.34
2018-12-17T10:09:08.644Z,1009.36
2018-12-17T10:10:07.502Z,1009.39
2018-12-17T10:11:06.063Z,1009.37
2018-12-17T10:12:04.648Z,1009.35
2018-12-17T10:13:03.547Z,1009.36
2018-12-17T10:14:02.152Z,1009.37
2018-12-17T10:15:00.753Z,1009.35
2018-12-17T10:15:59.591Z,1009.35
2018-12-17T10:16:58.173Z,1009.37
2018-12-17T10:17:57.101Z,1009.39
2018-12-17T10:18:55.649Z,1009.4
2018-12-17T10:19:54.300Z,1009.44
2018-12-17T10:20:53.170Z,1009.45
2018-12-17T10:21:51.783Z,1009.4
2018-12-17T10:22:50.318Z,1009.38
2018-12-17T10:23:49.207Z,1009.38
2018-12-17T10:24:47.767Z,1009.34
2018-12-17T10:25:46.331Z,1009.43
2018-12-17T10:26:44.841Z,1009.39
2018-12-17T10:27:43.508Z,1009.4
2018-12-17T10:28:42.015Z,1009.37
2018-12-17T10:29:40.558Z,1009.42
2018-12-17T10:30:39.361Z,1009.42
2018-12-17T10:31:37.898Z,1009.41
2018-12-17T10:32:36.406Z,1009.43
2018-12-17T10:33:34.966Z,1009.36
2018-12-17T10:34:33.736Z,1009.36
2018-12-17T10:35:32.287Z,1009.35
2018-12-17T10:36:30.889Z,1009.36
2018-12-17T10:37:29.432Z,1009.36
2018-12-17T10:38:27.959Z,1009.36
2018-12-17T10:39:26.599Z,1009.34
2018-12-17T10:40:25.404Z,1009.37
2018-12-17T10:41:23.963Z,1009.35
2018-12-17T10:42:22.484Z,1009.38
2018-12-17T10:43:21.439Z,1009.28
2018-12-17T10:44:20.004Z,1009.3
2018-12-17T10:45:18.550Z,1009.31
2018-12-17T10:46:17.128Z,1009.27
2018-12-17T10:47:15.677Z,1009.29
2018-12-17T10:48:14.204Z,1009.31
2018-12-17T10:49:13.087Z,1009.3
2018-12-17T10:50:11.806Z,1009.33
2018-12-17T10:51:10.355Z,1009.29
2018-12-17T10:52:09.087Z,1009.31
2018-12-17T10:53:07.656Z,1009.25
2018-12-17T10:54:06.199Z,1009.29
2018-12-17T10:55:04.722Z,1009.24
2018-12-17T10:56:03.322Z,1009.26
2018-12-17T10:57:01.864Z,1009.22
2018-12-17T10:58:00.398Z,1009.24
2018-12-17T10:58:59.333Z,1009.2
2018-12-17T11:01:57.592Z,1009.18
2018-12-17T11:02:56.124Z,1009.2
2018-12-17T11:03:54.729Z,1009.25
2018-12-17T11:04:53.569Z,1009.24
2018-12-17T11:05:52.122Z,1009.23
2018-12-17T11:06:50.774Z,1009.19
2018-12-17T11:07:49.348Z,1009.16
2018-12-17T11:08:47.910Z,1009.22
2018-12-17T11:09:46.452Z,1009.24
2018-12-17T11:10:44.991Z,1009.21
2018-12-17T11:11:43.544Z,1009.22
2018-12-17T11:12:42.115Z,1009.18
2018-12-17T11:13:40.613Z,1009.19
2018-12-17T11:14:39.490Z,1009.23
2018-12-17T11:15:38.039Z,1009.19
2018-12-17T11:16:36.555Z,1009.19
2018-12-17T11:17:35.459Z,1009.22
2018-12-17T11:18:34.075Z,1009.25
2018-12-17T11:19:32.611Z,1009.25
2018-12-17T11:20:31.132Z,1009.24
2018-12-17T11:21:29.670Z,1009.22
2018-12-17T11:22:28.198Z,1009.23
2018-12-17T11:23:26.770Z,1009.27
2018-12-17T11:24:25.665Z,1009.29
2018-12-17T11:25:24.233Z,1009.24
2018-12-17T11:26:23.230Z,1009.28
2018-12-17T11:27:21.765Z,1009.29
2018-12-17T11:28:20.256Z,1009.28
2018-12-17T11:29:18.799Z,1009.25
2018-12-17T11:30:17.384Z,1009.28
2018-12-17T11:31:15.927Z,1009.33
2018-12-17T11:32:14.476Z,1009.36
2018-12-17T11:33:13.258Z,1009.27
2018-12-17T11:34:11.953Z,1009.29
2018-12-17T11:35:10.646Z,1009.3
2018-12-17T11:36:09.219Z,1009.28
2018-12-17T11:37:07.812Z,1009.26
2018-12-17T11:38:06.391Z,1009.26
2018-12-17T11:39:04.928Z,1009.27
2018-12-17T11:40:03.643Z,1009.23
2018-12-17T11:41:02.169Z,1009.31
2018-12-17T11:42:00.920Z,1009.25
2018-12-17T11:42:59.713Z,1009.23
2018-12-17T11:43:58.284Z,1009.22
2018-12-17T11:44:56.850Z,1009.23
2018-12-17T11:45:55.454Z,1009.23
2018-12-17T11:46:54.039Z,1009.19
2018-12-17T11:47:52.556Z,1009.17
2018-12-17T11:48:51.095Z,1009.23
2018-12-17T11:49:49.901Z,1009.21
2018-12-17T11:50:48.483Z,1009.21
2018-12-17T11:51:47.543Z,1009.25
2018-12-17T11:52:46.080Z,1009.25
2018-12-17T11:53:44.597Z,1009.24
2018-12-17T11:54:43.189Z,1009.26
2018-12-17T11:55:41.723Z,1009.18
2018-12-17T11:56:40.290Z,1009.26
2018-12-17T11:57:39.082Z,1009.24
2018-12-17T11:58:37.745Z,1009.31